createdAt,value
2019-05-07T00:01:02.706Z,100996.43
2019-05-07T00:03:09.275Z,101001.20
2019-05-07T00:05:16.148Z,101000.81
2019-05-07T00:07:23.637Z,101000.39
2019-05-07T00:09:32.146Z,101008.63
2019-05-07T00:11:38.014Z,101000.83
2019-05-07T00:13:44.631Z,101003.03
2019-05-07T00:15:52.826Z,101001.31
2019-05-07T00:17:59.131Z,101004.78
2019-05-07T00:20:09.282Z,101010.44
2019-05-07T00:22:15.647Z,101006.54
2019-05-07T00:24:23.455Z,101010.02
2019-05-07T00:26:32.058Z,101010.90
2019-05-07T00:28:39.534Z,101009.14
2019-05-07T00:30:45.918Z,101010.89
2019-05-07T00:32:53.720Z,101015.25
2019-05-07T00:35:04.679Z,101016.11
2019-05-07T00:37:18.927Z,101023.92
2019-05-07T00:39:42.499Z,101017.39
2019-05-07T00:41:57.964Z,101016.55
2019-05-07T00:44:06.294Z,101011.36
2019-05-07T00:46:14.180Z,101015.69
2019-05-07T00:48:23.469Z,101026.53
2019-05-07T00:50:34.662Z,101025.66
2019-05-07T00:52:43.007Z,101029.98
2019-05-07T00:54:50.470Z,101032.16
2019-05-07T00:56:56.927Z,101032.16
2019-05-07T00:59:03.412Z,101031.73
2019-05-07T01:01:10.281Z,101028.27
2019-05-07T01:03:16.741Z,101029.99
2019-05-07T01:05:23.258Z,101030.00
2019-05-07T01:07:29.780Z,101030.42
2019-05-07T01:09:36.131Z,101030.89
2019-05-07T01:11:43.010Z,101023.95
2019-05-07T01:13:49.368Z,101032.17
2019-05-07T01:15:57.384Z,101036.06
2019-05-07T01:18:03.734Z,101030.89
2019-05-07T01:20:12.428Z,101041.69
2019-05-07T01:22:18.629Z,101035.63
2019-05-07T01:24:24.869Z,101033.03
2019-05-07T01:26:33.101Z,101034.77
2019-05-07T01:28:58.083Z,101036.08
2019-05-07T01:31:04.758Z,101030.84
2019-05-07T01:33:12.752Z,101030.43
2019-05-07T01:35:23.519Z,101035.62
2019-05-07T01:37:32.052Z,101032.56
2019-05-07T01:39:38.081Z,101040.36
2019-05-07T01:41:45.985Z,101042.09
2019-05-07T01:43:52.661Z,101039.52
2019-05-07T01:45:59.029Z,101037.33
2019-05-07T01:48:05.882Z,101043.83
2019-05-07T01:50:13.354Z,101043.83
2019-05-07T01:52:19.728Z,101035.62
2019-05-07T01:54:26.218Z,101034.76
2019-05-07T01:56:33.153Z,101034.31
2019-05-07T01:58:42.337Z,101042.12
2019-05-07T02:00:48.058Z,101039.09
2019-05-07T02:02:58.924Z,101040.81
2019-05-07T02:05:26.295Z,101038.65
2019-05-07T02:07:34.387Z,101044.31
2019-05-07T02:09:48.735Z,101039.95
2019-05-07T02:12:02.441Z,101041.70
2019-05-07T02:14:08.538Z,101034.33
2019-05-07T02:16:14.890Z,101039.52
2019-05-07T02:18:21.821Z,101041.70
2019-05-07T02:20:28.232Z,101041.70
2019-05-07T02:22:34.603Z,101042.56
2019-05-07T02:24:43.374Z,101042.56
2019-05-07T02:26:52.021Z,101045.59
2019-05-07T02:28:57.906Z,101046.48
2019-05-07T02:31:05.177Z,101040.40
2019-05-07T02:33:13.760Z,101040.84
2019-05-07T02:35:19.950Z,101047.75
2019-05-07T02:37:35.769Z,101049.93
2019-05-07T02:39:40.441Z,101047.75
2019-05-07T02:41:54.239Z,101052.94
2019-05-07T02:44:03.184Z,101044.73
2019-05-07T02:46:22.521Z,101048.60
2019-05-07T02:48:23.663Z,101046.89
2019-05-07T02:50:33.008Z,101049.48
2019-05-07T02:52:58.755Z,101049.93
2019-05-07T02:55:13.158Z,101045.16
2019-05-07T02:57:24.079Z,101047.34
2019-05-07T02:59:33.528Z,101048.19
2019-05-07T03:01:42.998Z,101046.47
2019-05-07T03:03:52.650Z,101043.85
2019-05-07T03:06:02.893Z,101045.17
2019-05-07T03:08:13.244Z,101045.59
2019-05-07T03:10:23.746Z,101044.70
2019-05-07T03:12:33.476Z,101043.83
2019-05-07T03:14:38.938Z,101036.05
2019-05-07T03:16:49.366Z,101040.78
2019-05-07T03:18:56.900Z,101036.91
2019-05-07T03:21:16.997Z,101037.78
2019-05-07T03:23:28.486Z,101041.24
2019-05-07T03:25:54.157Z,101041.20
2019-05-07T03:28:00.440Z,101045.10
2019-05-07T03:30:17.329Z,101049.44
2019-05-07T03:32:27.328Z,101050.73
2019-05-07T03:34:46.543Z,101056.83
2019-05-07T03:36:56.541Z,101056.39
2019-05-07T03:39:03.302Z,101052.53
2019-05-07T03:41:09.305Z,101050.77
2019-05-07T03:43:15.812Z,101057.28
2019-05-07T03:45:26.669Z,101054.69
2019-05-07T03:47:34.883Z,101057.28
2019-05-07T03:49:42.977Z,101055.56
2019-05-07T03:51:52.881Z,101043.22
2019-05-07T03:53:58.257Z,101039.08
2019-05-07T03:56:04.944Z,101042.52
2019-05-07T03:58:14.564Z,101036.98
2019-05-07T04:00:23.932Z,101041.30
2019-05-07T04:02:32.891Z,101043.96
2019-05-07T04:04:37.766Z,101046.02
2019-05-07T04:06:44.717Z,101045.58
2019-05-07T04:08:53.146Z,101043.92
2019-05-07T04:10:59.182Z,101045.31
2019-05-07T04:13:06.070Z,101044.30
2019-05-07T04:15:14.140Z,101045.08
2019-05-07T04:17:25.613Z,101046.46
2019-05-07T04:19:28.934Z,101049.02
2019-05-07T04:21:35.335Z,101043.68
2019-05-07T04:23:43.639Z,101050.05
2019-05-07T04:25:54.698Z,101042.95
2019-05-07T04:28:18.648Z,101051.89
2019-05-07T04:30:25.621Z,101047.58
2019-05-07T04:32:33.619Z,101040.20
2019-05-07T04:34:59.062Z,101039.17
2019-05-07T04:37:06.899Z,101046.52
2019-05-07T04:39:13.541Z,101049.23
2019-05-07T04:41:23.012Z,101051.19
2019-05-07T04:43:27.893Z,101047.08
2019-05-07T04:45:34.426Z,101050.43
2019-05-07T04:47:44.313Z,101062.54
2019-05-07T04:49:49.417Z,101061.20
2019-05-07T04:51:57.336Z,101069.70
2019-05-07T04:54:04.175Z,101068.50
2019-05-07T04:56:13.847Z,101070.01
2019-05-07T04:58:23.322Z,101073.33
2019-05-07T05:00:28.907Z,101079.03
2019-05-07T05:02:34.975Z,101082.66
2019-05-07T05:04:43.656Z,101079.41
2019-05-07T05:06:52.854Z,101080.27
2019-05-07T05:08:59.109Z,101074.61
2019-05-07T05:11:05.530Z,101080.72
2019-05-07T05:13:12.888Z,101086.27
2019-05-07T05:15:22.178Z,101091.12
2019-05-07T05:17:28.916Z,101092.97
2019-05-07T05:19:35.174Z,101088.07
2019-05-07T05:21:43.196Z,101086.86
2019-05-07T05:23:54.449Z,101091.22
2019-05-07T05:26:01.953Z,101094.37
2019-05-07T05:28:12.378Z,101085.50
2019-05-07T05:30:22.013Z,101089.53
2019-05-07T05:32:28.596Z,101093.45
2019-05-07T05:34:34.993Z,101096.44
2019-05-07T05:36:42.514Z,101089.66
2019-05-07T05:38:49.248Z,101094.30
2019-05-07T05:40:57.453Z,101089.16
2019-05-07T05:43:06.937Z,101083.77
2019-05-07T05:45:33.352Z,101090.20
2019-05-07T05:47:42.824Z,101092.83
2019-05-07T05:49:47.676Z,101089.92
2019-05-07T05:52:04.093Z,101097.07
2019-05-07T05:54:28.265Z,101090.38
2019-05-07T05:56:42.702Z,101094.52
2019-05-07T05:59:06.804Z,101090.70
2019-05-07T06:01:16.432Z,101085.30
2019-05-07T06:03:43.058Z,101090.05
2019-05-07T06:05:52.259Z,101085.25
2019-05-07T06:08:05.929Z,101089.23
2019-05-07T06:10:23.577Z,101092.09
2019-05-07T06:12:42.852Z,101091.72
2019-05-07T06:14:57.062Z,101097.95
2019-05-07T06:17:22.376Z,101093.50
2019-05-07T06:19:33.366Z,101096.81
2019-05-07T06:21:59.289Z,101098.61
2019-05-07T06:24:07.166Z,101097.23
2019-05-07T06:26:14.756Z,101096.11
2019-05-07T06:28:22.342Z,101093.03
2019-05-07T06:30:28.911Z,101094.63
2019-05-07T06:32:36.616Z,101089.70
2019-05-07T06:34:44.727Z,101092.16
2019-05-07T06:36:52.668Z,101091.39
2019-05-07T06:39:01.935Z,101091.86
2019-05-07T06:41:17.436Z,101093.02
2019-05-07T06:43:25.636Z,101093.51
2019-05-07T06:45:35.424Z,101090.66
2019-05-07T06:47:43.149Z,101089.12
2019-05-07T06:49:52.321Z,101088.70
2019-05-07T06:51:58.877Z,101082.44
2019-05-07T06:54:05.328Z,101083.30
2019-05-07T06:56:12.205Z,101087.52
2019-05-07T06:58:18.570Z,101086.70
2019-05-07T07:00:26.988Z,101085.78
2019-05-07T07:02:44.387Z,101081.93
2019-05-07T07:04:52.304Z,101083.36
2019-05-07T07:07:01.925Z,101081.47
2019-05-07T07:09:22.092Z,101090.27
2019-05-07T07:11:32.342Z,101087.83
2019-05-07T07:13:39.117Z,101085.13
2019-05-07T07:15:45.511Z,101080.77
2019-05-07T07:17:52.393Z,101089.32
2019-05-07T07:19:58.947Z,101089.08
2019-05-07T07:22:05.328Z,101083.44
2019-05-07T07:24:12.701Z,101092.81
2019-05-07T07:26:19.163Z,101087.92
2019-05-07T07:28:25.528Z,101089.03
2019-05-07T07:30:33.546Z,101089.51
2019-05-07T07:32:42.769Z,101096.32
2019-05-07T07:34:53.085Z,101083.24
2019-05-07T07:37:12.842Z,101084.70
2019-05-07T07:39:18.990Z,101082.64
2019-05-07T07:41:28.351Z,101089.12
2019-05-07T07:43:34.665Z,101090.34
2019-05-07T07:45:42.016Z,101090.79
2019-05-07T07:47:49.409Z,101092.42
2019-05-07T07:49:56.018Z,101095.47
2019-05-07T07:52:03.282Z,101093.14
2019-05-07T07:54:09.752Z,101095.77
2019-05-07T07:56:23.706Z,101094.91
2019-05-07T07:58:34.161Z,101094.59
2019-05-07T08:00:54.286Z,101089.06
2019-05-07T08:03:02.486Z,101091.63
2019-05-07T08:05:12.575Z,101093.56
2019-05-07T08:07:19.183Z,101096.64
2019-05-07T08:09:25.959Z,101091.73
2019-05-07T08:11:32.592Z,101089.70
2019-05-07T08:13:39.024Z,101087.67
2019-05-07T08:15:46.663Z,101080.13
2019-05-07T08:17:53.253Z,101075.52
2019-05-07T08:19:59.765Z,101081.90
2019-05-07T08:22:06.730Z,101082.94
2019-05-07T08:24:13.370Z,101090.00
2019-05-07T08:26:21.886Z,101086.16
2019-05-07T08:28:28.643Z,101089.45
2019-05-07T08:30:35.522Z,101098.06
2019-05-07T08:32:44.051Z,101089.03
2019-05-07T08:35:07.582Z,101082.83
2019-05-07T08:37:14.633Z,101082.16
2019-05-07T08:39:25.110Z,101073.55
2019-05-07T08:41:31.958Z,101074.94
2019-05-07T08:43:39.303Z,101082.66
2019-05-07T08:46:03.831Z,101088.67
2019-05-07T08:48:13.403Z,101083.84
2019-05-07T08:50:19.864Z,101083.27
2019-05-07T08:52:26.610Z,101088.28
2019-05-07T08:54:34.663Z,101086.83
2019-05-07T08:56:44.411Z,101082.28
2019-05-07T08:58:52.630Z,101084.69
2019-05-07T09:00:59.622Z,101084.64
2019-05-07T09:03:19.123Z,101081.30
2019-05-07T09:05:14.642Z,101079.61
2019-05-07T09:07:21.982Z,101083.51
2019-05-07T09:09:29.572Z,101082.88
2019-05-07T09:11:36.162Z,101083.81
2019-05-07T09:13:42.867Z,101086.31
2019-05-07T09:15:49.314Z,101089.85
2019-05-07T09:17:56.274Z,101087.39
2019-05-07T09:20:03.528Z,101096.31
2019-05-07T09:22:12.523Z,101084.43
2019-05-07T09:24:18.332Z,101087.06
2019-05-07T09:26:26.479Z,101090.78
2019-05-07T09:28:34.882Z,101091.61
2019-05-07T09:30:52.495Z,101100.67
2019-05-07T09:33:02.475Z,101086.45
2019-05-07T09:35:12.480Z,101089.72
2019-05-07T09:37:32.763Z,101087.33
2019-05-07T09:39:39.342Z,101087.27
2019-05-07T09:41:46.263Z,101083.64
2019-05-07T09:43:52.783Z,101092.07
2019-05-07T09:45:59.262Z,101092.70
2019-05-07T09:48:06.482Z,101091.08
2019-05-07T09:50:13.826Z,101089.09
2019-05-07T09:52:22.682Z,101092.75
2019-05-07T09:54:29.122Z,101087.37
2019-05-07T09:56:37.102Z,101077.05
2019-05-07T09:58:44.081Z,101093.71
2019-05-07T10:00:52.303Z,101082.88
2019-05-07T10:02:58.888Z,101080.55
2019-05-07T10:05:07.082Z,101094.79
2019-05-07T10:07:15.482Z,101092.27
2019-05-07T10:09:22.360Z,101085.96
2019-05-07T10:11:47.329Z,101086.11
2019-05-07T10:14:04.268Z,101088.45
2019-05-07T10:16:12.767Z,101088.04
2019-05-07T10:18:20.118Z,101090.47
2019-05-07T10:20:27.965Z,101088.02
2019-05-07T10:22:34.334Z,101088.00
2019-05-07T10:24:42.904Z,101087.69
2019-05-07T10:26:50.093Z,101084.64
2019-05-07T10:29:04.326Z,101089.83
2019-05-07T10:31:11.041Z,101086.20
2019-05-07T10:33:18.062Z,101084.69
2019-05-07T10:35:26.194Z,101081.80
2019-05-07T10:37:35.323Z,101074.63
2019-05-07T10:39:43.041Z,101087.33
2019-05-07T10:41:49.850Z,101089.55
2019-05-07T10:43:58.089Z,101079.90
2019-05-07T10:46:24.384Z,101074.93
2019-05-07T10:48:37.203Z,101081.75
2019-05-07T10:50:45.882Z,101089.08
2019-05-07T10:52:53.182Z,101083.84
2019-05-07T10:55:00.034Z,101082.73
2019-05-07T10:57:07.603Z,101077.72
2019-05-07T10:59:14.008Z,101079.90
2019-05-07T11:01:22.470Z,101081.75
2019-05-07T11:03:29.272Z,101085.72
2019-05-07T11:05:36.139Z,101085.73
2019-05-07T11:07:43.070Z,101081.23
2019-05-07T11:09:52.492Z,101078.71
2019-05-07T11:11:59.262Z,101065.50
2019-05-07T11:14:05.961Z,101081.63
2019-05-07T11:16:14.162Z,101088.95
2019-05-07T11:18:22.242Z,101082.95
2019-05-07T11:20:28.722Z,101082.56
2019-05-07T11:22:36.687Z,101077.20
2019-05-07T11:24:43.150Z,101072.25
2019-05-07T11:26:49.562Z,101086.19
2019-05-07T11:28:56.082Z,101081.63
2019-05-07T11:31:02.504Z,101086.11
2019-05-07T11:33:08.778Z,101083.31
2019-05-07T11:35:15.484Z,101075.64
2019-05-07T11:37:23.547Z,101079.47
2019-05-07T11:39:29.911Z,101075.16
2019-05-07T11:41:37.842Z,101078.79
2019-05-07T11:43:45.402Z,101076.28
2019-05-07T11:45:58.838Z,101062.30
2019-05-07T11:48:04.598Z,101066.18
2019-05-07T11:50:14.376Z,101078.98
2019-05-07T11:52:22.747Z,101086.27
2019-05-07T11:54:32.022Z,101077.80
2019-05-07T11:56:42.250Z,101070.95
2019-05-07T11:58:50.725Z,101075.61
2019-05-07T12:01:04.903Z,101079.30
2019-05-07T12:03:11.372Z,101073.64
2019-05-07T12:05:19.403Z,101078.84
2019-05-07T12:07:25.805Z,101079.34
2019-05-07T12:09:33.321Z,101070.36
2019-05-07T12:11:40.003Z,101072.22
2019-05-07T12:13:46.682Z,101072.67
2019-05-07T12:15:53.342Z,101064.75
2019-05-07T12:18:02.773Z,101071.67
2019-05-07T12:20:09.022Z,101067.94
2019-05-07T12:22:17.222Z,101064.67
2019-05-07T12:24:24.042Z,101073.12
2019-05-07T12:26:32.122Z,101075.11
2019-05-07T12:28:41.880Z,101066.02
2019-05-07T12:30:51.629Z,101063.63
2019-05-07T12:33:03.718Z,101063.05
2019-05-07T12:35:12.708Z,101061.36
2019-05-07T12:37:22.426Z,101060.49
2019-05-07T12:39:28.522Z,101062.66
2019-05-07T12:41:35.071Z,101072.89
2019-05-07T12:43:42.340Z,101059.55
2019-05-07T12:45:48.827Z,101055.59
2019-05-07T12:47:55.578Z,101065.87
2019-05-07T12:50:03.151Z,101064.80
2019-05-07T12:52:20.242Z,101072.89
2019-05-07T12:54:34.720Z,101068.31
2019-05-07T12:56:42.517Z,101071.03
2019-05-07T12:58:48.804Z,101065.72
2019-05-07T13:00:56.615Z,101066.59
2019-05-07T13:03:07.963Z,101064.26
2019-05-07T13:05:15.662Z,101057.65
2019-05-07T13:07:22.030Z,101059.40
2019-05-07T13:09:28.481Z,101066.67
2019-05-07T13:11:35.337Z,101068.98
2019-05-07T13:13:43.322Z,101061.20
2019-05-07T13:15:51.812Z,101070.91
2019-05-07T13:18:02.814Z,101070.19
2019-05-07T13:20:12.058Z,101074.67
2019-05-07T13:22:21.952Z,101068.66
2019-05-07T13:24:28.841Z,101066.84
2019-05-07T13:26:39.621Z,101069.03
2019-05-07T13:28:49.123Z,101054.67
2019-05-07T13:30:58.102Z,101063.28
2019-05-07T13:33:06.445Z,101067.52
2019-05-07T13:35:13.801Z,101060.13
2019-05-07T13:37:25.009Z,101064.60
2019-05-07T13:39:42.992Z,101060.87
2019-05-07T13:41:55.882Z,101058.96
2019-05-07T13:44:07.222Z,101056.39
2019-05-07T13:46:15.530Z,101063.08
2019-05-07T13:48:23.705Z,101053.75
2019-05-07T13:50:32.536Z,101049.53
2019-05-07T13:52:39.422Z,101056.70
2019-05-07T13:54:46.242Z,101054.89
2019-05-07T13:56:54.142Z,101059.17
2019-05-07T13:59:04.980Z,101059.77
2019-05-07T14:01:23.082Z,101058.94
2019-05-07T14:03:32.910Z,101067.60
2019-05-07T14:05:39.800Z,101059.34
2019-05-07T14:07:46.449Z,101063.80
2019-05-07T14:09:55.008Z,101061.48
2019-05-07T14:12:03.909Z,101071.59
2019-05-07T14:14:12.141Z,101069.59
2019-05-07T14:16:18.301Z,101073.05
2019-05-07T14:18:25.796Z,101070.05
2019-05-07T14:20:33.138Z,101063.72
2019-05-07T14:22:42.456Z,101062.53
2019-05-07T14:24:52.890Z,101059.34
2019-05-07T14:27:02.007Z,101068.73
2019-05-07T14:29:08.722Z,101071.65
2019-05-07T14:31:16.888Z,101067.23
2019-05-07T14:33:40.589Z,101063.31
2019-05-07T14:35:48.885Z,101067.41
2019-05-07T14:38:07.022Z,101070.78
2019-05-07T14:40:14.382Z,101081.03
2019-05-07T14:42:22.690Z,101068.22
2019-05-07T14:44:52.636Z,101059.46
2019-05-07T14:46:59.022Z,101061.05
2019-05-07T14:49:07.102Z,101063.89
2019-05-07T14:51:13.682Z,101070.95
2019-05-07T14:53:22.234Z,101065.31
2019-05-07T14:55:28.314Z,101064.50
2019-05-07T14:57:36.242Z,101071.00
2019-05-07T14:59:43.452Z,101072.78
2019-05-07T15:01:52.089Z,101071.24
2019-05-07T15:03:58.662Z,101072.96
2019-05-07T15:06:05.202Z,101071.06
2019-05-07T15:08:14.296Z,101064.84
2019-05-07T15:10:22.200Z,101063.98
2019-05-07T15:12:29.882Z,101073.49
2019-05-07T15:14:37.242Z,101063.87
2019-05-07T15:16:44.222Z,101064.12
2019-05-07T15:18:53.071Z,101063.16
2019-05-07T15:21:01.891Z,101070.61
2019-05-07T15:23:13.363Z,101071.56
2019-05-07T15:25:20.198Z,101065.38
2019-05-07T15:27:26.842Z,101067.78
2019-05-07T15:29:33.482Z,101069.91
2019-05-07T15:31:42.365Z,101073.38
2019-05-07T15:33:49.444Z,101062.34
2019-05-07T15:35:56.322Z,101074.11
2019-05-07T15:38:04.622Z,101063.75
2019-05-07T15:40:12.576Z,101066.45
2019-05-07T15:42:22.292Z,101071.51
2019-05-07T15:44:29.582Z,101065.33
2019-05-07T15:46:36.270Z,101065.31
2019-05-07T15:48:42.786Z,101070.62
2019-05-07T15:50:49.330Z,101074.36
2019-05-07T15:53:02.170Z,101066.41
2019-05-07T15:55:08.910Z,101069.43
2019-05-07T15:57:24.550Z,101069.48
2019-05-07T15:59:32.587Z,101071.73
2019-05-07T16:01:39.304Z,101074.14
2019-05-07T16:03:47.843Z,101074.02
2019-05-07T16:05:54.542Z,101076.70
2019-05-07T16:08:01.723Z,101077.84
2019-05-07T16:10:09.603Z,101081.70
2019-05-07T16:12:17.762Z,101078.11
2019-05-07T16:14:26.741Z,101081.37
2019-05-07T16:16:34.830Z,101075.48
2019-05-07T16:18:58.900Z,101085.82
2019-05-07T16:21:05.363Z,101086.54
2019-05-07T16:23:15.724Z,101090.75
2019-05-07T16:25:22.345Z,101083.36
2019-05-07T16:27:28.882Z,101081.59
2019-05-07T16:29:35.950Z,101083.86
2019-05-07T16:31:44.161Z,101082.45
2019-05-07T16:33:52.124Z,101088.14
2019-05-07T16:36:01.974Z,101086.29
2019-05-07T16:38:08.122Z,101087.00
2019-05-07T16:40:15.684Z,101090.66
2019-05-07T16:42:22.410Z,101087.81
2019-05-07T16:44:29.463Z,101084.77
2019-05-07T16:46:36.199Z,101091.07
2019-05-07T16:48:43.958Z,101092.99
2019-05-07T16:50:52.299Z,101093.69
2019-05-07T16:52:59.291Z,101092.00
2019-05-07T16:55:07.843Z,101093.73
2019-05-07T16:57:24.583Z,101103.03
2019-05-07T16:59:32.339Z,101100.52
2019-05-07T17:01:39.663Z,101103.02
2019-05-07T17:03:48.185Z,101110.41
2019-05-07T17:05:54.730Z,101109.84
2019-05-07T17:08:02.479Z,101108.67
2019-05-07T17:10:11.719Z,101114.09
2019-05-07T17:12:22.035Z,101110.81
2019-05-07T17:14:29.403Z,101103.44
2019-05-07T17:16:37.526Z,101101.81
2019-05-07T17:18:44.202Z,101108.92
2019-05-07T17:20:52.267Z,101106.88
2019-05-07T17:22:59.303Z,101117.64
2019-05-07T17:25:28.282Z,101115.18
2019-05-07T17:27:35.890Z,101111.82
2019-05-07T17:29:43.013Z,101114.15
2019-05-07T17:31:49.903Z,101115.75
2019-05-07T17:33:56.639Z,101116.33
2019-05-07T17:36:04.651Z,101114.32
2019-05-07T17:38:12.945Z,101117.65
2019-05-07T17:40:19.806Z,101124.78
2019-05-07T17:42:26.842Z,101126.30
2019-05-07T17:44:34.982Z,101129.74
2019-05-07T17:46:42.907Z,101126.06
2019-05-07T17:48:49.822Z,101125.48
2019-05-07T17:50:57.982Z,101128.81
2019-05-07T17:53:04.983Z,101129.42
2019-05-07T17:55:13.052Z,101128.87
2019-05-07T17:57:20.091Z,101127.33
2019-05-07T17:59:27.130Z,101134.59
2019-05-07T18:01:35.582Z,101127.03
2019-05-07T18:03:43.365Z,101134.73
2019-05-07T18:05:51.833Z,101129.63
2019-05-07T18:07:58.502Z,101134.64
2019-05-07T18:10:05.595Z,101137.35
2019-05-07T18:12:12.929Z,101135.28
2019-05-07T18:14:22.818Z,101143.84
2019-05-07T18:16:35.370Z,101144.46
2019-05-07T18:18:43.245Z,101149.02
2019-05-07T18:20:50.229Z,101144.84
2019-05-07T18:22:58.603Z,101148.08
2019-05-07T18:25:07.569Z,101152.54
2019-05-07T18:27:16.057Z,101153.04
2019-05-07T18:29:24.862Z,101154.02
2019-05-07T18:31:34.709Z,101151.44
2019-05-07T18:33:56.529Z,101154.59
2019-05-07T18:36:03.662Z,101155.58
2019-05-07T18:38:10.462Z,101153.52
2019-05-07T18:40:16.970Z,101156.66
2019-05-07T18:42:23.642Z,101156.26
2019-05-07T18:44:31.582Z,101151.51
2019-05-07T18:46:38.523Z,101159.37
2019-05-07T18:48:45.104Z,101165.20
2019-05-07T18:50:52.261Z,101162.73
2019-05-07T18:52:58.969Z,101161.22
2019-05-07T18:55:09.034Z,101160.13
2019-05-07T18:57:16.008Z,101165.61
2019-05-07T18:59:24.625Z,101162.37
2019-05-07T19:01:35.291Z,101165.24
2019-05-07T19:03:42.288Z,101163.75
2019-05-07T19:05:52.020Z,101167.90
2019-05-07T19:08:05.371Z,101166.41
2019-05-07T19:10:09.055Z,101166.61
2019-05-07T19:12:16.675Z,101174.66
2019-05-07T19:14:24.175Z,101176.20
2019-05-07T19:16:32.513Z,101178.12
2019-05-07T19:18:39.501Z,101176.99
2019-05-07T19:20:49.701Z,101181.09
2019-05-07T19:22:57.037Z,101183.39
2019-05-07T19:25:07.130Z,101184.82
2019-05-07T19:27:15.546Z,101184.53
2019-05-07T19:29:23.577Z,101189.83
2019-05-07T19:31:33.967Z,101186.89
2019-05-07T19:33:42.050Z,101186.13
2019-05-07T19:35:52.779Z,101188.36
2019-05-07T19:38:02.931Z,101188.01
2019-05-07T19:40:12.537Z,101184.62
2019-05-07T19:42:21.161Z,101180.75
2019-05-07T19:44:29.730Z,101187.34
2019-05-07T19:46:36.708Z,101183.51
2019-05-07T19:48:45.615Z,101186.64
2019-05-07T19:50:52.879Z,101189.78
2019-05-07T19:53:00.025Z,101188.61
2019-05-07T19:55:10.503Z,101197.41
2019-05-07T19:57:22.995Z,101192.22
2019-05-07T19:59:32.544Z,101192.70
2019-05-07T20:01:42.643Z,101189.27
2019-05-07T20:03:53.223Z,101197.14
2019-05-07T20:06:04.463Z,101196.30
2019-05-07T20:08:12.730Z,101199.00
2019-05-07T20:10:25.356Z,101195.12
2019-05-07T20:12:36.712Z,101204.73
2019-05-07T20:14:46.680Z,101203.94
2019-05-07T20:16:57.140Z,101200.49
2019-05-07T20:19:07.194Z,101201.84
2019-05-07T20:21:16.943Z,101204.48
2019-05-07T20:23:24.006Z,101204.12
2019-05-07T20:25:33.324Z,101202.45
2019-05-07T20:27:43.458Z,101200.77
2019-05-07T20:29:52.232Z,101196.05
2019-05-07T20:31:59.806Z,101207.39
2019-05-07T20:34:07.965Z,101208.30
2019-05-07T20:36:16.650Z,101200.49
2019-05-07T20:38:26.730Z,101207.89
2019-05-07T20:40:36.145Z,101205.31
2019-05-07T20:42:43.306Z,101202.77
2019-05-07T20:44:51.972Z,101200.15
2019-05-07T20:47:01.690Z,101198.88
2019-05-07T20:49:09.487Z,101194.95
2019-05-07T20:51:17.035Z,101199.77
2019-05-07T20:53:43.495Z,101191.05
2019-05-07T20:55:54.135Z,101191.45
2019-05-07T20:58:03.465Z,101190.15
2019-05-07T21:00:15.253Z,101200.52
2019-05-07T21:02:23.158Z,101203.11
2019-05-07T21:04:32.840Z,101210.44
2019-05-07T21:06:39.958Z,101209.07
2019-05-07T21:08:47.085Z,101208.64
2019-05-07T21:10:53.957Z,101203.41
2019-05-07T21:13:02.027Z,101206.49
2019-05-07T21:15:09.225Z,101199.53
2019-05-07T21:17:16.079Z,101205.63
2019-05-07T21:19:23.716Z,101203.37
2019-05-07T21:21:32.549Z,101210.31
2019-05-07T21:23:38.974Z,101213.77
2019-05-07T21:25:46.220Z,101215.44
2019-05-07T21:27:53.200Z,101216.23
2019-05-07T21:30:02.330Z,101220.48
2019-05-07T21:32:08.267Z,101217.44
2019-05-07T21:34:16.410Z,101218.01
2019-05-07T21:36:23.293Z,101216.34
2019-05-07T21:38:30.025Z,101214.62
2019-05-07T21:40:38.287Z,101214.20
2019-05-07T21:42:46.611Z,101209.01
2019-05-07T21:44:53.483Z,101214.66
2019-05-07T21:47:01.737Z,101211.21
2019-05-07T21:49:07.959Z,101215.12
2019-05-07T21:51:14.526Z,101212.02
2019-05-07T21:53:34.402Z,101218.95
2019-05-07T21:56:02.524Z,101219.78
2019-05-07T21:58:16.789Z,101224.64
2019-05-07T22:00:32.681Z,101224.27
2019-05-07T22:02:42.339Z,101226.50
2019-05-07T22:04:48.890Z,101227.44
2019-05-07T22:06:56.388Z,101223.09
2019-05-07T22:09:03.566Z,101220.94
2019-05-07T22:11:13.403Z,101224.39
2019-05-07T22:13:22.015Z,101220.45
2019-05-07T22:15:28.085Z,101222.19
2019-05-07T22:17:34.547Z,101224.30
2019-05-07T22:19:42.666Z,101222.56
2019-05-07T22:21:52.169Z,101220.35
2019-05-07T22:23:58.346Z,101224.27
2019-05-07T22:26:19.214Z,101218.58
2019-05-07T22:28:13.452Z,101223.34
2019-05-07T22:30:34.116Z,101219.38
2019-05-07T22:32:55.569Z,101222.80
2019-05-07T22:35:07.439Z,101220.16
2019-05-07T22:37:15.850Z,101225.74
2019-05-07T22:39:29.814Z,101222.63
2019-05-07T22:41:39.585Z,101226.98
2019-05-07T22:43:46.845Z,101228.28
2019-05-07T22:45:53.522Z,101226.98
2019-05-07T22:48:00.162Z,101224.80
2019-05-07T22:50:07.662Z,101226.47
2019-05-07T22:52:14.107Z,101227.78
2019-05-07T22:54:22.556Z,101225.59
2019-05-07T22:56:37.323Z,101226.07
2019-05-07T22:58:56.541Z,101223.49
2019-05-07T23:01:05.275Z,101227.84
2019-05-07T23:03:12.483Z,101224.40
2019-05-07T23:05:19.332Z,101213.95
2019-05-07T23:07:26.502Z,101217.47
2019-05-07T23:09:33.065Z,101218.34
2019-05-07T23:11:40.872Z,101209.59
2019-05-07T23:13:48.942Z,101214.78
2019-05-07T23:15:55.651Z,101211.27
2019-05-07T23:18:04.092Z,101210.36
2019-05-07T23:20:10.223Z,101204.70
2019-05-07T23:22:16.998Z,101201.65
2019-05-07T23:24:25.916Z,101208.14
2019-05-07T23:28:44.176Z,101208.46
2019-05-07T23:30:51.940Z,101211.03
2019-05-07T23:32:58.331Z,101217.17
2019-05-07T23:35:05.113Z,101223.02
2019-05-07T23:37:11.841Z,101218.81
2019-05-07T23:39:20.085Z,101217.11
2019-05-07T23:41:28.082Z,101218.48
2019-05-07T23:43:34.643Z,101217.20
2019-05-07T23:45:42.078Z,101214.16
2019-05-07T23:47:48.502Z,101225.01
2019-05-07T23:49:54.944Z,101219.28
2019-05-07T23:52:02.416Z,101216.63
2019-05-07T23:54:12.154Z,101226.17
2019-05-07T23:56:22.045Z,101221.86
2019-05-07T23:58:32.661Z,101220.98
